sensor_id;sensor_type;location;lat;lon;timestamp;P1;durP1;ratioP1;P2;durP2;ratioP2
27670;SDS011;15077;49.704;9.908;2022-08-01T00:01:07;1.77;;;1.00;;
27670;SDS011;15077;49.704;9.908;2022-08-01T00:03:33;1.27;;;1.02;;
27670;SDS011;15077;49.704;9.908;2022-08-01T00:05:59;1.70;;;1.00;;
27670;SDS011;15077;49.704;9.908;2022-08-01T00:08:25;2.10;;;1.00;;
27670;SDS011;15077;49.704;9.908;2022-08-01T00:10:51;1.92;;;1.13;;
27670;SDS011;15077;49.704;9.908;2022-08-01T00:13:16;1.75;;;1.20;;
27670;SDS011;15077;49.704;9.908;2022-08-01T00:15:42;1.00;;;0.85;;
27670;SDS011;15077;49.704;9.908;2022-08-01T00:18:08;1.35;;;1.00;;
27670;SDS011;15077;49.704;9.908;2022-08-01T00:20:34;0.93;;;0.77;;
27670;SDS011;15077;49.704;9.908;2022-08-01T00:23:01;1.33;;;0.60;;
27670;SDS011;15077;49.704;9.908;2022-08-01T00:25:28;1.35;;;0.93;;
27670;SDS011;15077;49.704;9.908;2022-08-01T00:27:54;1.27;;;0.90;;
27670;SDS011;15077;49.704;9.908;2022-08-01T00:30:19;0.68;;;0.60;;
27670;SDS011;15077;49.704;9.908;2022-08-01T00:32:45;1.20;;;0.90;;
27670;SDS011;15077;49.704;9.908;2022-08-01T00:35:11;0.80;;;0.60;;
27670;SDS011;15077;49.704;9.908;2022-08-01T00:37:38;1.17;;;0.80;;
27670;SDS011;15077;49.704;9.908;2022-08-01T00:40:04;2.45;;;1.13;;
27670;SDS011;15077;49.704;9.908;2022-08-01T00:42:31;1.20;;;0.75;;
27670;SDS011;15077;49.704;9.908;2022-08-01T00:44:57;1.70;;;0.77;;
27670;SDS011;15077;49.704;9.908;2022-08-01T00:47:23;1.13;;;0.88;;
27670;SDS011;15077;49.704;9.908;2022-08-01T00:49:49;0.82;;;0.80;;
27670;SDS011;15077;49.704;9.908;2022-08-01T00:52:15;1.48;;;0.82;;
27670;SDS011;15077;49.704;9.908;2022-08-01T00:54:41;1.35;;;0.90;;
27670;SDS011;15077;49.704;9.908;2022-08-01T00:57:08;1.25;;;0.90;;
27670;SDS011;15077;49.704;9.908;2022-08-01T00:59:35;1.17;;;0.82;;
27670;SDS011;15077;49.704;9.908;2022-08-01T01:02:02;1.13;;;0.70;;
27670;SDS011;15077;49.704;9.908;2022-08-01T01:04:28;1.27;;;1.17;;
27670;SDS011;15077;49.704;9.908;2022-08-01T01:15:09;2.17;;;0.80;;
27670;SDS011;15077;49.704;9.908;2022-08-01T01:17:46;1.53;;;0.80;;
27670;SDS011;15077;49.704;9.908;2022-08-01T01:20:21;1.33;;;0.70;;
27670;SDS011;15077;49.704;9.908;2022-08-01T01:28:59;0.80;;;0.70;;
27670;SDS011;15077;49.704;9.908;2022-08-01T01:31:36;0.70;;;0.60;;
27670;SDS011;15077;49.704;9.908;2022-08-01T01:34:21;1.10;;;0.70;;
27670;SDS011;15077;49.704;9.908;2022-08-01T01:36:49;1.08;;;0.60;;
27670;SDS011;15077;49.704;9.908;2022-08-01T01:39:20;2.30;;;0.80;;
27670;SDS011;15077;49.704;9.908;2022-08-01T01:41:49;0.73;;;0.52;;
27670;SDS011;15077;49.704;9.908;2022-08-01T01:44:18;1.42;;;0.80;;
27670;SDS011;15077;49.704;9.908;2022-08-01T01:46:44;1.00;;;0.68;;
27670;SDS011;15077;49.704;9.908;2022-08-01T01:49:13;0.70;;;0.60;;
27670;SDS011;15077;49.704;9.908;2022-08-01T01:51:40;0.70;;;0.50;;
27670;SDS011;15077;49.704;9.908;2022-08-01T01:54:09;0.70;;;0.50;;
27670;SDS011;15077;49.704;9.908;2022-08-01T01:56:35;1.02;;;0.52;;
27670;SDS011;15077;49.704;9.908;2022-08-01T01:59:13;1.80;;;0.68;;
27670;SDS011;15077;49.704;9.908;2022-08-01T02:01:49;0.98;;;0.63;;
27670;SDS011;15077;49.704;9.908;2022-08-01T02:04:19;0.75;;;0.75;;
27670;SDS011;15077;49.704;9.908;2022-08-01T02:06:47;1.10;;;0.70;;
27670;SDS011;15077;49.704;9.908;2022-08-01T02:09:17;0.93;;;0.60;;
27670;SDS011;15077;49.704;9.908;2022-08-01T02:11:46;0.88;;;0.75;;
27670;SDS011;15077;49.704;9.908;2022-08-01T02:14:14;1.60;;;0.65;;
27670;SDS011;15077;49.704;9.908;2022-08-01T02:16:50;1.02;;;0.63;;
27670;SDS011;15077;49.704;9.908;2022-08-01T02:19:19;0.70;;;0.70;;
27670;SDS011;15077;49.704;9.908;2022-08-01T02:30:21;0.90;;;0.60;;
27670;SDS011;15077;49.704;9.908;2022-08-01T02:32:51;0.95;;;0.70;;
27670;SDS011;15077;49.704;9.908;2022-08-01T02:35:41;0.65;;;0.60;;
27670;SDS011;15077;49.704;9.908;2022-08-01T02:38:13;0.80;;;0.60;;
27670;SDS011;15077;49.704;9.908;2022-08-01T02:40:42;0.45;;;0.40;;
27670;SDS011;15077;49.704;9.908;2022-08-01T02:43:12;0.65;;;0.60;;
27670;SDS011;15077;49.704;9.908;2022-08-01T02:45:47;1.52;;;0.60;;
27670;SDS011;15077;49.704;9.908;2022-08-01T02:48:19;1.20;;;0.82;;
27670;SDS011;15077;49.704;9.908;2022-08-01T02:50:51;0.43;;;0.40;;
27670;SDS011;15077;49.704;9.908;2022-08-01T02:53:21;0.90;;;0.55;;
27670;SDS011;15077;49.704;9.908;2022-08-01T02:55:51;1.20;;;0.63;;
27670;SDS011;15077;49.704;9.908;2022-08-01T02:58:20;0.68;;;0.50;;
27670;SDS011;15077;49.704;9.908;2022-08-01T03:00:48;1.63;;;0.70;;
27670;SDS011;15077;49.704;9.908;2022-08-01T03:03:15;0.88;;;0.52;;
27670;SDS011;15077;49.704;9.908;2022-08-01T03:05:43;0.88;;;0.70;;
27670;SDS011;15077;49.704;9.908;2022-08-01T03:08:10;0.70;;;0.50;;
27670;SDS011;15077;49.704;9.908;2022-08-01T03:10:38;1.13;;;0.43;;
27670;SDS011;15077;49.704;9.908;2022-08-01T03:13:08;0.65;;;0.50;;
27670;SDS011;15077;49.704;9.908;2022-08-01T03:15:36;0.85;;;0.60;;
27670;SDS011;15077;49.704;9.908;2022-08-01T03:18:06;1.10;;;0.60;;
27670;SDS011;15077;49.704;9.908;2022-08-01T03:20:35;1.05;;;0.90;;
27670;SDS011;15077;49.704;9.908;2022-08-01T03:23:03;1.00;;;0.80;;
27670;SDS011;15077;49.704;9.908;2022-08-01T03:25:32;0.90;;;0.63;;
27670;SDS011;15077;49.704;9.908;2022-08-01T03:28:04;0.77;;;0.57;;
27670;SDS011;15077;49.704;9.908;2022-08-01T03:30:33;0.80;;;0.40;;
27670;SDS011;15077;49.704;9.908;2022-08-01T03:33:01;1.02;;;0.60;;
27670;SDS011;15077;49.704;9.908;2022-08-01T03:35:29;0.68;;;0.55;;
27670;SDS011;15077;49.704;9.908;2022-08-01T03:38:01;0.70;;;0.50;;
27670;SDS011;15077;49.704;9.908;2022-08-01T03:43:26;0.80;;;0.60;;
27670;SDS011;15077;49.704;9.908;2022-08-01T03:46:05;1.35;;;0.88;;
27670;SDS011;15077;49.704;9.908;2022-08-01T03:48:43;1.00;;;0.70;;
27670;SDS011;15077;49.704;9.908;2022-08-01T03:51:13;1.27;;;0.80;;
27670;SDS011;15077;49.704;9.908;2022-08-01T03:53:42;1.45;;;0.80;;
27670;SDS011;15077;49.704;9.908;2022-08-01T03:56:10;1.75;;;0.70;;
27670;SDS011;15077;49.704;9.908;2022-08-01T03:58:41;0.83;;;0.43;;
27670;SDS011;15077;49.704;9.908;2022-08-01T04:01:08;1.17;;;0.65;;
27670;SDS011;15077;49.704;9.908;2022-08-01T04:03:38;0.98;;;0.88;;
27670;SDS011;15077;49.704;9.908;2022-08-01T04:06:05;1.75;;;1.00;;
27670;SDS011;15077;49.704;9.908;2022-08-01T04:08:34;0.80;;;0.70;;
27670;SDS011;15077;49.704;9.908;2022-08-01T04:11:03;0.65;;;0.55;;
27670;SDS011;15077;49.704;9.908;2022-08-01T04:13:30;1.10;;;0.80;;
27670;SDS011;15077;49.704;9.908;2022-08-01T04:15:57;1.38;;;0.80;;
27670;SDS011;15077;49.704;9.908;2022-08-01T04:18:23;1.63;;;1.00;;
27670;SDS011;15077;49.704;9.908;2022-08-01T04:20:49;1.55;;;0.88;;
27670;SDS011;15077;49.704;9.908;2022-08-01T04:23:15;1.58;;;0.93;;
27670;SDS011;15077;49.704;9.908;2022-08-01T04:25:47;0.80;;;0.60;;
27670;SDS011;15077;49.704;9.908;2022-08-01T04:28:15;1.45;;;1.10;;
27670;SDS011;15077;49.704;9.908;2022-08-01T04:30:43;0.70;;;0.70;;
27670;SDS011;15077;49.704;9.908;2022-08-01T04:33:13;0.80;;;0.70;;
27670;SDS011;15077;49.704;9.908;2022-08-01T04:35:45;0.95;;;0.60;;
27670;SDS011;15077;49.704;9.908;2022-08-01T04:38:15;1.15;;;1.00;;
27670;SDS011;15077;49.704;9.908;2022-08-01T04:40:47;1.50;;;0.73;;
27670;SDS011;15077;49.704;9.908;2022-08-01T04:43:15;1.00;;;0.65;;
27670;SDS011;15077;49.704;9.908;2022-08-01T04:45:42;1.05;;;0.77;;
27670;SDS011;15077;49.704;9.908;2022-08-01T04:48:08;0.90;;;0.70;;
27670;SDS011;15077;49.704;9.908;2022-08-01T04:50:36;1.17;;;0.80;;
27670;SDS011;15077;49.704;9.908;2022-08-01T04:53:02;2.80;;;0.90;;
27670;SDS011;15077;49.704;9.908;2022-08-01T04:55:28;1.40;;;0.90;;
27670;SDS011;15077;49.704;9.908;2022-08-01T04:57:56;1.10;;;0.80;;
27670;SDS011;15077;49.704;9.908;2022-08-01T05:00:22;1.40;;;1.10;;
27670;SDS011;15077;49.704;9.908;2022-08-01T05:02:48;1.05;;;0.70;;
27670;SDS011;15077;49.704;9.908;2022-08-01T05:05:13;0.65;;;0.60;;
27670;SDS011;15077;49.704;9.908;2022-08-01T05:07:39;0.90;;;0.65;;
27670;SDS011;15077;49.704;9.908;2022-08-01T05:10:06;1.05;;;0.70;;
27670;SDS011;15077;49.704;9.908;2022-08-01T05:12:33;0.90;;;0.77;;
27670;SDS011;15077;49.704;9.908;2022-08-01T05:14:59;1.15;;;0.70;;
27670;SDS011;15077;49.704;9.908;2022-08-01T05:17:25;1.67;;;0.82;;
27670;SDS011;15077;49.704;9.908;2022-08-01T05:19:51;1.08;;;0.85;;
27670;SDS011;15077;49.704;9.908;2022-08-01T05:22:17;1.98;;;0.98;;
27670;SDS011;15077;49.704;9.908;2022-08-01T05:24:42;1.02;;;0.80;;
27670;SDS011;15077;49.704;9.908;2022-08-01T05:27:08;1.10;;;0.60;;
27670;SDS011;15077;49.704;9.908;2022-08-01T05:29:35;1.48;;;0.80;;
27670;SDS011;15077;49.704;9.908;2022-08-01T05:32:00;1.00;;;0.60;;
27670;SDS011;15077;49.704;9.908;2022-08-01T05:34:27;1.45;;;0.65;;
27670;SDS011;15077;49.704;9.908;2022-08-01T05:36:53;0.90;;;0.80;;
27670;SDS011;15077;49.704;9.908;2022-08-01T05:39:19;1.30;;;0.93;;
27670;SDS011;15077;49.704;9.908;2022-08-01T05:41:45;1.55;;;1.10;;
27670;SDS011;15077;49.704;9.908;2022-08-01T05:44:10;2.25;;;0.80;;
27670;SDS011;15077;49.704;9.908;2022-08-01T05:46:36;1.33;;;1.10;;
27670;SDS011;15077;49.704;9.908;2022-08-01T05:49:03;2.30;;;1.00;;
27670;SDS011;15077;49.704;9.908;2022-08-01T05:51:29;2.08;;;1.20;;
27670;SDS011;15077;49.704;9.908;2022-08-01T05:53:56;2.40;;;1.38;;
27670;SDS011;15077;49.704;9.908;2022-08-01T05:56:22;1.50;;;1.35;;
27670;SDS011;15077;49.704;9.908;2022-08-01T05:58:49;2.10;;;1.38;;
27670;SDS011;15077;49.704;9.908;2022-08-01T06:01:16;2.05;;;1.40;;
27670;SDS011;15077;49.704;9.908;2022-08-01T06:03:43;1.70;;;1.15;;
27670;SDS011;15077;49.704;9.908;2022-08-01T06:06:09;1.83;;;1.65;;
27670;SDS011;15077;49.704;9.908;2022-08-01T06:08:36;2.17;;;1.33;;
27670;SDS011;15077;49.704;9.908;2022-08-01T06:11:03;2.50;;;1.48;;
27670;SDS011;15077;49.704;9.908;2022-08-01T06:13:28;2.25;;;1.58;;
27670;SDS011;15077;49.704;9.908;2022-08-01T06:15:54;2.20;;;1.58;;
27670;SDS011;15077;49.704;9.908;2022-08-01T06:18:20;1.67;;;0.93;;
27670;SDS011;15077;49.704;9.908;2022-08-01T06:20:47;2.15;;;1.27;;
27670;SDS011;15077;49.704;9.908;2022-08-01T06:23:14;3.08;;;1.35;;
27670;SDS011;15077;49.704;9.908;2022-08-01T06:25:42;2.10;;;1.45;;
27670;SDS011;15077;49.704;9.908;2022-08-01T06:28:08;1.65;;;1.30;;
27670;SDS011;15077;49.704;9.908;2022-08-01T06:30:34;2.00;;;1.40;;
27670;SDS011;15077;49.704;9.908;2022-08-01T06:33:00;2.83;;;1.23;;
27670;SDS011;15077;49.704;9.908;2022-08-01T06:35:26;1.77;;;1.33;;
27670;SDS011;15077;49.704;9.908;2022-08-01T06:37:54;2.80;;;1.40;;
27670;SDS011;15077;49.704;9.908;2022-08-01T06:40:21;2.38;;;1.48;;
27670;SDS011;15077;49.704;9.908;2022-08-01T06:42:47;2.10;;;1.83;;
27670;SDS011;15077;49.704;9.908;2022-08-01T06:45:13;3.58;;;1.27;;
27670;SDS011;15077;49.704;9.908;2022-08-01T06:47:41;2.00;;;1.35;;
27670;SDS011;15077;49.704;9.908;2022-08-01T06:50:08;1.83;;;1.40;;
27670;SDS011;15077;49.704;9.908;2022-08-01T06:52:35;1.98;;;1.10;;
27670;SDS011;15077;49.704;9.908;2022-08-01T06:55:02;1.73;;;1.50;;
27670;SDS011;15077;49.704;9.908;2022-08-01T06:57:28;1.83;;;1.35;;
27670;SDS011;15077;49.704;9.908;2022-08-01T06:59:54;1.55;;;1.20;;
27670;SDS011;15077;49.704;9.908;2022-08-01T07:02:22;2.00;;;1.50;;
27670;SDS011;15077;49.704;9.908;2022-08-01T07:04:48;1.92;;;1.33;;
27670;SDS011;15077;49.704;9.908;2022-08-01T07:07:14;1.50;;;1.17;;
27670;SDS011;15077;49.704;9.908;2022-08-01T07:09:40;2.33;;;1.33;;
27670;SDS011;15077;49.704;9.908;2022-08-01T07:12:07;1.48;;;0.95;;
27670;SDS011;15077;49.704;9.908;2022-08-01T07:14:34;1.40;;;1.05;;
27670;SDS011;15077;49.704;9.908;2022-08-01T07:17:00;1.30;;;0.95;;
27670;SDS011;15077;49.704;9.908;2022-08-01T07:19:26;1.60;;;1.40;;
27670;SDS011;15077;49.704;9.908;2022-08-01T07:21:52;1.40;;;1.10;;
27670;SDS011;15077;49.704;9.908;2022-08-01T07:24:18;1.55;;;1.15;;
27670;SDS011;15077;49.704;9.908;2022-08-01T07:26:44;1.88;;;1.30;;
27670;SDS011;15077;49.704;9.908;2022-08-01T07:29:13;1.10;;;0.90;;
27670;SDS011;15077;49.704;9.908;2022-08-01T07:31:39;2.10;;;1.25;;
27670;SDS011;15077;49.704;9.908;2022-08-01T07:34:06;1.30;;;1.05;;
27670;SDS011;15077;49.704;9.908;2022-08-01T07:36:31;1.33;;;1.20;;
27670;SDS011;15077;49.704;9.908;2022-08-01T07:38:57;2.15;;;1.05;;
27670;SDS011;15077;49.704;9.908;2022-08-01T07:41:23;1.13;;;1.00;;
27670;SDS011;15077;49.704;9.908;2022-08-01T07:43:49;1.40;;;1.30;;
27670;SDS011;15077;49.704;9.908;2022-08-01T07:46:15;1.27;;;0.98;;
27670;SDS011;15077;49.704;9.908;2022-08-01T07:48:41;1.58;;;1.20;;
27670;SDS011;15077;49.704;9.908;2022-08-01T07:51:07;1.50;;;1.17;;
27670;SDS011;15077;49.704;9.908;2022-08-01T07:53:35;1.67;;;1.30;;
27670;SDS011;15077;49.704;9.908;2022-08-01T07:56:01;1.25;;;1.15;;
27670;SDS011;15077;49.704;9.908;2022-08-01T07:58:29;1.92;;;1.40;;
27670;SDS011;15077;49.704;9.908;2022-08-01T08:00:55;1.75;;;1.30;;
27670;SDS011;15077;49.704;9.908;2022-08-01T08:03:22;1.33;;;1.17;;
27670;SDS011;15077;49.704;9.908;2022-08-01T08:05:48;1.42;;;1.10;;
27670;SDS011;15077;49.704;9.908;2022-08-01T08:08:13;2.20;;;1.13;;
27670;SDS011;15077;49.704;9.908;2022-08-01T08:10:40;0.98;;;0.82;;
27670;SDS011;15077;49.704;9.908;2022-08-01T08:13:06;1.25;;;1.05;;
27670;SDS011;15077;49.704;9.908;2022-08-01T08:15:32;1.80;;;1.08;;
27670;SDS011;15077;49.704;9.908;2022-08-01T08:17:57;1.33;;;0.82;;
27670;SDS011;15077;49.704;9.908;2022-08-01T08:20:23;1.25;;;0.93;;
27670;SDS011;15077;49.704;9.908;2022-08-01T08:22:53;1.33;;;1.00;;
27670;SDS011;15077;49.704;9.908;2022-08-01T08:25:21;1.30;;;0.82;;
27670;SDS011;15077;49.704;9.908;2022-08-01T08:27:48;1.00;;;0.90;;
27670;SDS011;15077;49.704;9.908;2022-08-01T08:30:14;1.20;;;0.80;;
27670;SDS011;15077;49.704;9.908;2022-08-01T08:32:40;1.40;;;0.98;;
27670;SDS011;15077;49.704;9.908;2022-08-01T08:35:06;1.70;;;1.00;;
27670;SDS011;15077;49.704;9.908;2022-08-01T08:37:36;1.48;;;0.98;;
27670;SDS011;15077;49.704;9.908;2022-08-01T08:40:03;1.20;;;0.73;;
27670;SDS011;15077;49.704;9.908;2022-08-01T08:42:31;1.15;;;0.82;;
27670;SDS011;15077;49.704;9.908;2022-08-01T08:44:57;1.70;;;0.90;;
27670;SDS011;15077;49.704;9.908;2022-08-01T08:47:23;2.88;;;1.65;;
27670;SDS011;15077;49.704;9.908;2022-08-01T08:49:53;3.22;;;1.63;;
27670;SDS011;15077;49.704;9.908;2022-08-01T08:52:22;1.55;;;1.15;;
27670;SDS011;15077;49.704;9.908;2022-08-01T08:54:48;1.23;;;1.13;;
27670;SDS011;15077;49.704;9.908;2022-08-01T08:57:17;1.30;;;1.00;;
27670;SDS011;15077;49.704;9.908;2022-08-01T08:59:45;1.35;;;1.00;;
27670;SDS011;15077;49.704;9.908;2022-08-01T09:02:12;1.50;;;1.02;;
27670;SDS011;15077;49.704;9.908;2022-08-01T09:04:38;3.15;;;1.48;;
27670;SDS011;15077;49.704;9.908;2022-08-01T09:07:05;1.63;;;0.90;;
27670;SDS011;15077;49.704;9.908;2022-08-01T09:09:33;1.02;;;0.70;;
27670;SDS011;15077;49.704;9.908;2022-08-01T09:11:59;1.90;;;1.17;;
27670;SDS011;15077;49.704;9.908;2022-08-01T09:14:25;1.40;;;0.95;;
27670;SDS011;15077;49.704;9.908;2022-08-01T09:19:36;1.35;;;0.93;;
27670;SDS011;15077;49.704;9.908;2022-08-01T09:22:06;1.90;;;0.93;;
27670;SDS011;15077;49.704;9.908;2022-08-01T09:24:35;1.63;;;1.10;;
27670;SDS011;15077;49.704;9.908;2022-08-01T09:27:14;0.98;;;0.65;;
27670;SDS011;15077;49.704;9.908;2022-08-01T09:29:44;0.77;;;0.68;;
27670;SDS011;15077;49.704;9.908;2022-08-01T09:32:10;1.10;;;1.00;;
27670;SDS011;15077;49.704;9.908;2022-08-01T09:34:36;0.75;;;0.68;;
27670;SDS011;15077;49.704;9.908;2022-08-01T09:37:02;1.42;;;0.90;;
27670;SDS011;15077;49.704;9.908;2022-08-01T09:39:38;1.25;;;0.90;;
27670;SDS011;15077;49.704;9.908;2022-08-01T09:42:28;1.08;;;0.90;;
27670;SDS011;15077;49.704;9.908;2022-08-01T09:44:53;1.00;;;0.80;;
27670;SDS011;15077;49.704;9.908;2022-08-01T09:47:19;1.02;;;0.82;;
27670;SDS011;15077;49.704;9.908;2022-08-01T09:49:55;0.73;;;0.68;;
27670;SDS011;15077;49.704;9.908;2022-08-01T09:52:23;0.77;;;0.60;;
27670;SDS011;15077;49.704;9.908;2022-08-01T09:54:51;2.05;;;0.77;;
27670;SDS011;15077;49.704;9.908;2022-08-01T09:57:24;1.08;;;0.90;;
27670;SDS011;15077;49.704;9.908;2022-08-01T09:59:53;1.00;;;0.90;;
27670;SDS011;15077;49.704;9.908;2022-08-01T10:05:00;1.27;;;0.82;;
27670;SDS011;15077;49.704;9.908;2022-08-01T10:07:29;2.05;;;1.00;;
27670;SDS011;15077;49.704;9.908;2022-08-01T10:09:54;1.67;;;1.02;;
27670;SDS011;15077;49.704;9.908;2022-08-01T10:12:21;0.68;;;0.50;;
27670;SDS011;15077;49.704;9.908;2022-08-01T10:14:50;0.77;;;0.50;;
27670;SDS011;15077;49.704;9.908;2022-08-01T10:17:19;0.77;;;0.52;;
27670;SDS011;15077;49.704;9.908;2022-08-01T10:19:49;1.65;;;1.05;;
27670;SDS011;15077;49.704;9.908;2022-08-01T10:22:19;0.80;;;0.60;;
27670;SDS011;15077;49.704;9.908;2022-08-01T10:24:48;1.38;;;0.60;;
27670;SDS011;15077;49.704;9.908;2022-08-01T10:32:32;1.00;;;0.57;;
27670;SDS011;15077;49.704;9.908;2022-08-01T10:35:05;0.80;;;0.63;;
27670;SDS011;15077;49.704;9.908;2022-08-01T10:37:35;2.72;;;0.90;;
27670;SDS011;15077;49.704;9.908;2022-08-01T10:40:01;0.90;;;0.68;;
27670;SDS011;15077;49.704;9.908;2022-08-01T10:42:29;0.85;;;0.80;;
27670;SDS011;15077;49.704;9.908;2022-08-01T10:44:55;0.90;;;0.77;;
27670;SDS011;15077;49.704;9.908;2022-08-01T10:47:35;1.10;;;0.77;;
27670;SDS011;15077;49.704;9.908;2022-08-01T10:50:24;1.05;;;0.90;;
27670;SDS011;15077;49.704;9.908;2022-08-01T10:53:23;0.88;;;0.82;;
27670;SDS011;15077;49.704;9.908;2022-08-01T10:58:24;0.70;;;0.70;;
27670;SDS011;15077;49.704;9.908;2022-08-01T11:06:26;0.60;;;0.50;;
27670;SDS011;15077;49.704;9.908;2022-08-01T11:09:15;0.75;;;0.47;;
27670;SDS011;15077;49.704;9.908;2022-08-01T11:12:23;0.50;;;0.40;;
27670;SDS011;15077;49.704;9.908;2022-08-01T11:17:41;1.05;;;0.65;;
27670;SDS011;15077;49.704;9.908;2022-08-01T11:41:14;0.98;;;0.70;;
27670;SDS011;15077;49.704;9.908;2022-08-01T11:43:59;0.80;;;0.60;;
27670;SDS011;15077;49.704;9.908;2022-08-01T11:57:27;0.60;;;0.57;;
27670;SDS011;15077;49.704;9.908;2022-08-01T11:59:57;0.70;;;0.50;;
27670;SDS011;15077;49.704;9.908;2022-08-01T12:02:28;0.55;;;0.47;;
27670;SDS011;15077;49.704;9.908;2022-08-01T12:04:57;0.88;;;0.55;;
27670;SDS011;15077;49.704;9.908;2022-08-01T12:07:31;0.75;;;0.50;;
27670;SDS011;15077;49.704;9.908;2022-08-01T12:10:09;0.73;;;0.63;;
27670;SDS011;15077;49.704;9.908;2022-08-01T12:12:44;1.83;;;0.50;;
27670;SDS011;15077;49.704;9.908;2022-08-01T12:15:14;0.60;;;0.60;;
27670;SDS011;15077;49.704;9.908;2022-08-01T12:17:42;0.75;;;0.57;;
27670;SDS011;15077;49.704;9.908;2022-08-01T12:20:13;0.90;;;0.60;;
27670;SDS011;15077;49.704;9.908;2022-08-01T12:22:47;1.33;;;0.50;;
27670;SDS011;15077;49.704;9.908;2022-08-01T12:25:17;0.85;;;0.57;;
27670;SDS011;15077;49.704;9.908;2022-08-01T12:27:44;0.43;;;0.43;;
27670;SDS011;15077;49.704;9.908;2022-08-01T12:30:13;0.68;;;0.57;;
27670;SDS011;15077;49.704;9.908;2022-08-01T12:32:45;1.27;;;0.60;;
27670;SDS011;15077;49.704;9.908;2022-08-01T12:35:13;0.40;;;0.40;;
27670;SDS011;15077;49.704;9.908;2022-08-01T12:37:46;0.50;;;0.40;;
27670;SDS011;15077;49.704;9.908;2022-08-01T12:40:17;0.90;;;0.70;;
27670;SDS011;15077;49.704;9.908;2022-08-01T12:42:44;0.73;;;0.63;;
27670;SDS011;15077;49.704;9.908;2022-08-01T12:45:19;0.70;;;0.60;;
27670;SDS011;15077;49.704;9.908;2022-08-01T12:47:59;0.82;;;0.70;;
27670;SDS011;15077;49.704;9.908;2022-08-01T12:50:28;0.85;;;0.70;;
27670;SDS011;15077;49.704;9.908;2022-08-01T12:52:56;1.10;;;0.80;;
27670;SDS011;15077;49.704;9.908;2022-08-01T12:55:26;0.95;;;0.60;;
27670;SDS011;15077;49.704;9.908;2022-08-01T12:58:06;0.93;;;0.82;;
27670;SDS011;15077;49.704;9.908;2022-08-01T13:00:40;0.90;;;0.70;;
27670;SDS011;15077;49.704;9.908;2022-08-01T13:03:13;1.35;;;0.85;;
27670;SDS011;15077;49.704;9.908;2022-08-01T13:10:48;1.02;;;0.73;;
27670;SDS011;15077;49.704;9.908;2022-08-01T13:13:24;0.70;;;0.60;;
27670;SDS011;15077;49.704;9.908;2022-08-01T13:16:19;0.80;;;0.75;;
27670;SDS011;15077;49.704;9.908;2022-08-01T13:18:49;0.90;;;0.70;;
27670;SDS011;15077;49.704;9.908;2022-08-01T13:21:18;1.10;;;0.60;;
27670;SDS011;15077;49.704;9.908;2022-08-01T13:26:38;1.10;;;0.80;;
27670;SDS011;15077;49.704;9.908;2022-08-01T13:29:32;0.95;;;0.50;;
27670;SDS011;15077;49.704;9.908;2022-08-01T13:32:12;1.02;;;0.65;;
27670;SDS011;15077;49.704;9.908;2022-08-01T13:34:40;0.70;;;0.70;;
27670;SDS011;15077;49.704;9.908;2022-08-01T13:37:07;0.95;;;0.80;;
27670;SDS011;15077;49.704;9.908;2022-08-01T13:39:34;1.30;;;0.80;;
27670;SDS011;15077;49.704;9.908;2022-08-01T13:42:09;0.98;;;0.68;;
27670;SDS011;15077;49.704;9.908;2022-08-01T13:44:41;1.00;;;0.60;;
27670;SDS011;15077;49.704;9.908;2022-08-01T13:47:10;0.85;;;0.75;;
27670;SDS011;15077;49.704;9.908;2022-08-01T13:49:36;1.00;;;0.70;;
27670;SDS011;15077;49.704;9.908;2022-08-01T13:52:02;0.85;;;0.75;;
27670;SDS011;15077;49.704;9.908;2022-08-01T13:54:31;0.80;;;0.80;;
27670;SDS011;15077;49.704;9.908;2022-08-01T13:56:57;1.15;;;0.82;;
27670;SDS011;15077;49.704;9.908;2022-08-01T13:59:24;1.10;;;0.80;;
27670;SDS011;15077;49.704;9.908;2022-08-01T14:01:49;0.90;;;0.75;;
27670;SDS011;15077;49.704;9.908;2022-08-01T14:04:16;0.98;;;0.88;;
27670;SDS011;15077;49.704;9.908;2022-08-01T14:06:42;2.03;;;1.02;;
27670;SDS011;15077;49.704;9.908;2022-08-01T14:09:08;1.65;;;1.10;;
27670;SDS011;15077;49.704;9.908;2022-08-01T14:11:34;0.88;;;0.70;;
27670;SDS011;15077;49.704;9.908;2022-08-01T14:14:01;1.20;;;0.90;;
27670;SDS011;15077;49.704;9.908;2022-08-01T14:16:26;0.80;;;0.68;;
27670;SDS011;15077;49.704;9.908;2022-08-01T14:18:52;1.00;;;0.80;;
27670;SDS011;15077;49.704;9.908;2022-08-01T14:21:18;1.20;;;0.90;;
27670;SDS011;15077;49.704;9.908;2022-08-01T14:23:44;0.70;;;0.50;;
27670;SDS011;15077;49.704;9.908;2022-08-01T14:26:10;0.93;;;0.80;;
27670;SDS011;15077;49.704;9.908;2022-08-01T14:28:38;1.17;;;0.85;;
27670;SDS011;15077;49.704;9.908;2022-08-01T14:31:05;1.25;;;0.90;;
27670;SDS011;15077;49.704;9.908;2022-08-01T14:33:31;1.25;;;0.90;;
27670;SDS011;15077;49.704;9.908;2022-08-01T14:35:57;0.95;;;0.70;;
27670;SDS011;15077;49.704;9.908;2022-08-01T14:38:23;0.93;;;0.60;;
27670;SDS011;15077;49.704;9.908;2022-08-01T14:40:49;2.22;;;1.10;;
27670;SDS011;15077;49.704;9.908;2022-08-01T14:43:18;1.13;;;0.70;;
27670;SDS011;15077;49.704;9.908;2022-08-01T14:45:45;0.93;;;0.70;;
27670;SDS011;15077;49.704;9.908;2022-08-01T14:48:16;1.10;;;0.80;;
27670;SDS011;15077;49.704;9.908;2022-08-01T14:50:42;0.90;;;0.73;;
27670;SDS011;15077;49.704;9.908;2022-08-01T14:53:08;1.70;;;0.90;;
27670;SDS011;15077;49.704;9.908;2022-08-01T14:55:34;1.00;;;0.90;;
27670;SDS011;15077;49.704;9.908;2022-08-01T14:58:00;0.75;;;0.68;;
27670;SDS011;15077;49.704;9.908;2022-08-01T15:00:26;1.58;;;1.02;;
27670;SDS011;15077;49.704;9.908;2022-08-01T15:02:52;1.20;;;0.70;;
27670;SDS011;15077;49.704;9.908;2022-08-01T15:05:17;0.93;;;0.77;;
27670;SDS011;15077;49.704;9.908;2022-08-01T15:07:43;1.00;;;0.73;;
27670;SDS011;15077;49.704;9.908;2022-08-01T15:10:09;1.33;;;0.95;;
27670;SDS011;15077;49.704;9.908;2022-08-01T15:12:35;0.75;;;0.70;;
27670;SDS011;15077;49.704;9.908;2022-08-01T15:15:01;1.33;;;1.02;;
27670;SDS011;15077;49.704;9.908;2022-08-01T15:17:28;0.93;;;0.70;;
27670;SDS011;15077;49.704;9.908;2022-08-01T15:19:58;1.27;;;0.90;;
27670;SDS011;15077;49.704;9.908;2022-08-01T15:22:31;0.80;;;0.70;;
27670;SDS011;15077;49.704;9.908;2022-08-01T15:24:59;1.90;;;0.80;;
27670;SDS011;15077;49.704;9.908;2022-08-01T15:27:26;1.42;;;0.75;;
27670;SDS011;15077;49.704;9.908;2022-08-01T15:29:53;1.00;;;0.73;;
27670;SDS011;15077;49.704;9.908;2022-08-01T15:32:20;0.98;;;0.60;;
27670;SDS011;15077;49.704;9.908;2022-08-01T15:34:47;0.82;;;0.60;;
27670;SDS011;15077;49.704;9.908;2022-08-01T15:37:13;1.02;;;0.82;;
27670;SDS011;15077;49.704;9.908;2022-08-01T15:39:40;0.65;;;0.50;;
27670;SDS011;15077;49.704;9.908;2022-08-01T15:42:08;1.65;;;0.60;;
27670;SDS011;15077;49.704;9.908;2022-08-01T15:44:39;1.33;;;0.90;;
27670;SDS011;15077;49.704;9.908;2022-08-01T15:47:05;1.52;;;0.90;;
27670;SDS011;15077;49.704;9.908;2022-08-01T15:49:33;1.10;;;0.57;;
27670;SDS011;15077;49.704;9.908;2022-08-01T15:52:03;0.95;;;0.70;;
27670;SDS011;15077;49.704;9.908;2022-08-01T15:54:30;0.93;;;0.60;;
27670;SDS011;15077;49.704;9.908;2022-08-01T15:56:55;1.00;;;0.70;;
27670;SDS011;15077;49.704;9.908;2022-08-01T15:59:21;0.82;;;0.63;;
27670;SDS011;15077;49.704;9.908;2022-08-01T16:01:47;2.60;;;0.70;;
27670;SDS011;15077;49.704;9.908;2022-08-01T16:04:14;0.80;;;0.55;;
27670;SDS011;15077;49.704;9.908;2022-08-01T16:06:42;1.65;;;0.70;;
27670;SDS011;15077;49.704;9.908;2022-08-01T16:09:09;0.90;;;0.60;;
27670;SDS011;15077;49.704;9.908;2022-08-01T16:11:35;1.15;;;0.80;;
27670;SDS011;15077;49.704;9.908;2022-08-01T16:14:01;1.05;;;0.65;;
27670;SDS011;15077;49.704;9.908;2022-08-01T16:16:27;1.17;;;0.77;;
27670;SDS011;15077;49.704;9.908;2022-08-01T16:18:53;1.08;;;0.93;;
27670;SDS011;15077;49.704;9.908;2022-08-01T16:21:19;0.75;;;0.70;;
27670;SDS011;15077;49.704;9.908;2022-08-01T16:23:47;1.00;;;0.65;;